Time;durP1;ratioP1;P1;durP2;ratioP2;P2;SDS_P1;SDS_P2;PMS_P1;PMS_P2;Temp;Humidity;BMP_temperature;BMP_pressure;BME280_temperature;BME280_humidity;BME280_pressure;Samples;Min_cycle;Max_cycle;Signal;HPM_P1;HPM_P2
2023/02/09 00:00:02;;;;;;;23.38;11.15;;;-3.20;99.90;;;-144.05;58.65;57137.69;5041346;28;20537;-81
2023/02/09 00:02:28;;;;;;;28.23;12.65;;;-3.20;99.90;;;-144.05;58.25;57169.56;5041059;28;20056;-81
2023/02/09 00:04:53;;;;;;;23.23;10.00;;;-3.10;99.90;;;-144.05;57.71;57129.22;5024956;28;20033;-82
2023/02/09 00:07:19;;;;;;;19.30;10.75;;;-3.20;99.90;;;-144.05;58.07;57154.69;5043291;28;20048;-82
2023/02/09 00:09:45;;;;;;;24.17;9.93;;;-3.20;99.90;;;-144.05;58.51;57137.69;5046816;28;20037;-83
2023/02/09 00:14:56;;;;;;;25.00;10.98;;;-3.30;99.90;;;-144.05;59.32;57127.09;5048794;28;20102;-81
2023/02/09 00:17:22;;;;;;;21.92;9.85;;;-3.30;99.90;;;-144.05;59.45;57110.09;5048846;28;20033;-82
2023/02/09 00:19:47;;;;;;;19.73;9.50;;;-3.30;99.90;;;-144.05;60.13;57156.81;5048376;28;20025;-82
2023/02/09 00:22:13;;;;;;;21.27;10.90;;;-3.30;99.90;;;-144.05;60.09;57150.44;5046326;28;20057;-83
2023/02/09 00:24:39;;;;;;;21.00;8.73;;;-3.40;99.90;;;-144.05;60.14;57129.22;5047164;28;20026;-83
2023/02/09 00:27:05;;;;;;;22.20;9.85;;;-3.40;99.90;;;-144.05;60.55;57141.94;5049193;28;20064;-82
2023/02/09 00:29:31;;;;;;;19.60;9.63;;;-3.40;99.90;;;-144.05;61.47;57129.22;5046676;28;20037;-84
2023/02/09 00:31:57;;;;;;;16.35;8.80;;;-3.40;99.90;;;-144.05;61.53;57146.19;5048860;28;20322;-84
2023/02/09 00:34:23;;;;;;;18.48;9.30;;;-3.40;99.90;;;-144.05;61.41;57141.94;5048817;28;20512;-83
2023/02/09 00:36:48;;;;;;;17.80;8.90;;;-3.30;99.90;;;-144.05;60.65;57167.44;5045475;28;20037;-84
2023/02/09 00:39:14;;;;;;;16.65;9.15;;;-3.30;99.90;;;-144.05;61.50;57133.44;5047399;28;20034;-85
2023/02/09 00:44:25;;;;;;;19.77;9.05;;;-3.00;99.90;;;-144.05;59.44;57146.19;5049909;28;20515;-85
2023/02/09 00:46:51;;;;;;;18.08;8.02;;;-2.70;99.90;;;-144.05;58.44;57141.94;5050284;28;20025;-83
2023/02/09 00:49:17;;;;;;;21.73;9.13;;;-2.50;99.90;;;-144.05;56.90;57112.22;5048067;28;20033;-84
2023/02/09 00:51:43;;;;;;;20.52;9.15;;;-2.10;99.90;;;-144.05;55.91;57103.72;5049155;28;20033;-85
2023/02/09 00:54:09;;;;;;;22.20;9.02;;;-1.90;99.90;;;-144.05;54.82;57135.56;5050735;28;20033;-84
2023/02/09 00:56:35;;;;;;;18.98;8.65;;;-1.70;99.90;;;-144.05;54.49;57131.31;5051027;28;20038;-83
2023/02/09 00:59:01;;;;;;;17.05;7.82;;;-1.60;99.90;;;-144.05;53.88;57131.31;5056266;28;20072;-82
2023/02/09 01:01:27;;;;;;;15.55;8.23;;;-1.40;99.90;;;-144.05;53.35;57114.34;5048160;28;20163;-83
2023/02/09 01:03:53;;;;;;;17.40;8.15;;;-1.40;99.90;;;-144.05;52.91;57103.72;5041810;28;20041;-83
2023/02/09 01:06:19;;;;;;;17.00;8.18;;;-1.30;99.90;;;-144.05;52.57;57127.09;5044029;28;20029;-81
2023/02/09 01:08:44;;;;;;;20.05;8.52;;;-1.20;99.90;;;-144.05;52.25;57112.22;5055362;28;20040;-79
2023/02/09 01:11:14;;;;;;;16.42;7.97;;;-1.20;99.90;;;-144.05;51.95;57107.97;5044958;28;20042;-81
2023/02/09 01:13:42;;;;;;;15.75;7.57;;;-1.10;99.90;;;-144.05;51.80;57097.34;5040478;28;20408;-82
2023/02/09 01:16:16;;;;;;;19.13;8.82;;;-1.00;99.90;;;-144.05;51.28;57105.84;5024468;28;20033;-83
2023/02/09 01:18:43;;;;;;;15.88;8.32;;;-1.10;99.90;;;-144.05;50.94;57069.72;5041818;28;20378;-82
2023/02/09 01:21:13;;;;;;;17.38;8.65;;;-0.90;99.90;;;-144.05;50.63;57103.72;5039621;28;20063;-82
2023/02/09 01:23:42;;;;;;;21.25;8.15;;;-0.80;99.90;;;-144.05;50.46;57097.34;5041061;28;20041;-82
2023/02/09 01:26:12;;;;;;;17.58;8.02;;;-0.70;99.90;;;-144.05;50.24;57097.34;5042251;28;20076;-82
2023/02/09 01:28:39;;;;;;;17.25;8.48;;;-0.60;99.90;;;-144.05;49.88;57099.47;5022383;28;20029;-82
2023/02/09 01:31:19;;;;;;;19.05;8.82;;;-0.50;99.90;;;-144.05;48.97;57095.22;5022389;28;20037;-82
2023/02/09 01:33:45;;;;;;;13.40;7.50;;;-0.30;99.90;;;-144.05;48.22;57103.72;5039190;28;20536;-82
2023/02/09 01:36:11;;;;;;;18.27;9.05;;;-0.20;99.90;;;-144.05;47.79;57099.47;5041601;28;20025;-81
2023/02/09 01:38:37;;;;;;;14.00;7.40;;;-0.10;99.90;;;-144.05;47.89;57086.72;5040696;28;20056;-81
2023/02/09 01:41:03;;;;;;;16.38;8.43;;;0.00;99.90;;;-144.05;47.34;57101.59;5041037;28;20075;-82
2023/02/09 01:43:50;;;;;;;20.45;8.63;;;0.10;99.90;;;-144.05;46.80;57105.84;5039672;28;20331;-83
2023/02/09 01:46:16;;;;;;;17.30;8.50;;;0.20;99.90;;;-144.05;46.86;57076.09;5023680;28;20063;-84
2023/02/09 01:48:42;;;;;;;14.70;7.60;;;0.20;99.90;;;-144.05;46.84;57112.22;5040418;28;20124;-81
2023/02/09 01:51:10;;;;;;;16.08;8.52;;;0.20;99.90;;;-144.05;46.76;57073.97;5041641;28;20085;-81
2023/02/09 01:53:36;;;;;;;16.38;7.85;;;0.20;99.90;;;-144.05;46.84;57082.47;5041819;28;20037;-82
2023/02/09 01:56:20;;;;;;;16.20;8.18;;;0.00;99.90;;;-144.05;47.19;57084.59;5043909;28;20076;-82
2023/02/09 01:58:48;;;;;;;18.30;9.20;;;-0.10;99.90;;;-144.05;47.39;57097.34;5042162;28;20056;-83
2023/02/09 02:01:16;;;;;;;15.18;7.95;;;-0.20;99.90;;;-144.05;47.56;57090.97;5042256;28;20033;-82
2023/02/09 02:03:43;;;;;;;16.70;8.05;;;-0.20;99.90;;;-144.05;47.57;57088.84;5042024;28;20026;-82
2023/02/09 02:06:16;;;;;;;15.82;7.80;;;-0.30;99.90;;;-144.05;47.27;57101.59;5042764;28;20025;-82
2023/02/09 02:09:13;;;;;;;16.88;9.63;;;-0.30;99.90;;;-144.05;47.67;57099.47;5043132;28;20359;-83
2023/02/09 02:11:46;;;;;;;15.10;7.68;;;-0.40;99.90;;;-144.05;47.51;57090.97;5044685;28;20093;-83
2023/02/09 02:14:35;;;;;;;19.17;8.20;;;-0.50;99.90;;;-144.05;47.60;57112.22;5047114;28;20029;-83
2023/02/09 02:17:47;;;;;;;17.50;8.15;;;-0.60;99.90;;;-144.05;47.76;57112.22;5039683;28;20021;-82
2023/02/09 02:20:50;;;;;;;16.98;8.25;;;-0.60;99.90;;;-144.05;48.11;57095.22;5037801;28;20041;-82
2023/02/09 02:23:40;;;;;;;17.65;8.20;;;-0.70;99.90;;;-144.05;48.38;57084.59;5021287;28;20068;-82
2023/02/09 02:26:54;;;;;;;16.23;8.32;;;-0.70;99.90;;;-144.05;48.32;57107.97;5035174;28;20032;-81
2023/02/09 02:30:25;;;;;;;19.38;8.43;;;-0.70;99.90;;;-144.05;48.23;57116.47;5035384;28;20148;-82
2023/02/09 02:33:18;;;;;;;19.75;8.95;;;-0.60;99.90;;;-144.05;48.02;57099.47;5036259;28;20596;-81
2023/02/09 02:36:05;;;;;;;19.30;8.30;;;-0.50;99.90;;;-144.05;48.01;57084.59;5036537;28;20155;-82
2023/02/09 02:38:52;;;;;;;17.77;8.52;;;-0.50;99.90;;;-144.05;48.08;57112.22;5039815;28;20054;-80
2023/02/09 02:42:47;;;;;;;19.05;8.15;;;-0.50;99.90;;;-144.05;47.94;57086.72;5019985;28;20033;-82
2023/02/09 02:44:30;;;;;;;19.35;8.45;;;-0.50;99.90;;;-144.05;47.97;57095.22;5037774;28;20045;-82
2023/02/09 02:47:05;;;;;;;21.95;9.50;;;-0.50;99.90;;;-144.05;48.06;57103.72;5037819;28;20037;-81
2023/02/09 02:49:59;;;;;;;19.20;9.18;;;-0.40;99.90;;;-144.05;48.12;57103.72;5036662;28;20025;-81
2023/02/09 02:52:25;;;;;;;19.95;9.10;;;-0.50;99.90;;;-144.05;47.83;57078.22;5036882;28;20085;-83
2023/02/09 02:55:06;;;;;;;17.58;8.55;;;-0.40;99.90;;;-144.05;47.69;57103.72;5034845;28;20480;-83
2023/02/09 02:57:38;;;;;;;16.75;8.45;;;-0.40;99.90;;;-144.05;47.72;57086.72;5037661;28;20056;-81
2023/02/09 03:00:23;;;;;;;22.30;9.38;;;-0.30;99.90;;;-144.05;47.46;57082.47;5037027;28;20029;-83
2023/02/09 03:02:59;;;;;;;16.33;8.90;;;-0.30;99.90;;;-144.05;47.58;57073.97;5037039;28;20134;-82
2023/02/09 03:05:27;;;;;;;17.42;8.70;;;-0.40;99.90;;;-144.05;47.65;57090.97;5036788;28;20500;-81
2023/02/09 03:07:53;;;;;;;18.95;8.98;;;-0.30;99.90;;;-144.05;47.58;57086.72;5052065;28;20059;-81
2023/02/09 03:10:39;;;;;;;21.85;9.82;;;-0.30;99.90;;;-144.05;47.69;57110.09;5042072;28;20454;-84
2023/02/09 03:13:15;;;;;;;21.02;8.40;;;-0.30;99.90;;;-144.05;47.70;57088.84;5035528;28;20021;-80
2023/02/09 03:16:14;;;;;;;18.58;8.35;;;-0.40;99.90;;;-144.05;47.74;57095.22;5017889;28;20026;-82
2023/02/09 03:20:00;;;;;;;23.48;8.73;;;-0.40;99.90;;;-144.05;47.88;57090.97;5023610;28;20033;-83
2023/02/09 03:22:40;;;;;;;18.15;8.57;;;-0.50;99.90;;;-144.05;47.70;57095.22;5015251;28;20091;-79
2023/02/09 03:25:33;;;;;;;17.73;8.60;;;-0.40;99.90;;;-144.05;47.62;57082.47;5039156;28;20036;-82
2023/02/09 03:28:14;;;;;;;19.90;8.75;;;-0.50;99.90;;;-144.05;47.65;57103.72;5035450;28;20056;-82
2023/02/09 03:30:47;;;;;;;18.45;8.75;;;-0.30;99.90;;;-144.05;47.08;57073.97;5036658;28;20501;-82
2023/02/09 03:33:25;;;;;;;16.27;8.40;;;-0.30;99.90;;;-144.05;47.39;57112.22;5018759;28;20443;-82
2023/02/09 03:35:56;;;;;;;19.23;8.77;;;-0.30;99.90;;;-144.05;47.27;57080.34;5035762;28;20025;-83
2023/02/09 03:38:24;;;;;;;16.05;8.30;;;-0.30;99.90;;;-144.05;47.34;57103.72;5041497;28;20053;-82
2023/02/09 03:40:50;;;;;;;19.13;8.93;;;-0.30;99.90;;;-144.05;47.07;57076.09;5042852;28;20096;-82
2023/02/09 03:43:16;;;;;;;18.40;8.68;;;-0.20;99.90;;;-144.05;47.01;57101.59;5036759;28;20029;-83
2023/02/09 03:45:41;;;;;;;15.38;8.18;;;-0.30;99.90;;;-144.05;47.05;57086.72;5035678;28;20053;-83
2023/02/09 03:48:07;;;;;;;21.95;10.27;;;-0.30;99.90;;;-144.05;46.64;57095.22;5036358;28;20068;-82
2023/02/09 03:50:36;;;;;;;21.75;9.75;;;-0.30;99.90;;;-144.05;46.74;57084.59;5037832;28;20025;-83
2023/02/09 03:53:06;;;;;;;20.38;9.05;;;-0.30;99.90;;;-144.05;46.72;57110.09;5037707;28;20128;-81
2023/02/09 03:55:33;;;;;;;16.27;8.25;;;-0.20;99.90;;;-144.05;46.67;57105.84;5035950;28;20025;-81
2023/02/09 03:57:59;;;;;;;17.40;8.88;;;-0.20;99.90;;;-144.05;46.60;57127.09;5040139;28;20029;-80
2023/02/09 04:00:26;;;;;;;17.48;8.63;;;-0.30;99.90;;;-144.05;46.80;57120.72;5045641;28;20030;-80
2023/02/09 04:02:52;;;;;;;20.10;8.55;;;-0.40;99.90;;;-144.05;46.81;57073.97;5046156;28;20025;-82
2023/02/09 04:05:18;;;;;;;15.95;8.70;;;-0.40;99.90;;;-144.05;46.84;57095.22;5050614;28;20005;-81
2023/02/09 04:07:44;;;;;;;15.45;7.28;;;-0.50;99.90;;;-144.05;47.19;57084.59;5045814;28;20029;-80
2023/02/09 04:10:11;;;;;;;19.00;8.93;;;-0.50;99.90;;;-144.05;47.07;57082.47;5035583;28;20087;-83
2023/02/09 04:12:36;;;;;;;20.73;8.45;;;-0.40;99.90;;;-144.05;46.94;57090.97;5052290;28;20045;-82
2023/02/09 04:15:04;;;;;;;17.05;8.60;;;-0.50;99.90;;;-144.05;47.02;57061.22;5045697;28;20432;-80
2023/02/09 04:17:29;;;;;;;19.33;9.13;;;-0.50;99.90;;;-144.05;46.98;57095.22;5044944;28;20040;-79
2023/02/09 04:19:55;;;;;;;18.02;9.18;;;-0.50;99.90;;;-144.05;47.04;57065.47;5044830;28;20025;-81
2023/02/09 04:22:21;;;;;;;19.30;9.07;;;-0.50;99.90;;;-144.05;47.55;57086.72;5046410;28;20029;-81
2023/02/09 04:24:47;;;;;;;19.23;9.48;;;-0.50;99.90;;;-144.05;47.86;57095.22;5029360;28;20025;-81
2023/02/09 04:27:13;;;;;;;17.00;8.73;;;-0.50;99.90;;;-144.05;47.50;57103.72;5046978;28;20030;-80
2023/02/09 04:29:39;;;;;;;18.92;9.30;;;-0.50;99.90;;;-144.05;47.75;57078.22;5045633;28;20369;-81
2023/02/09 04:32:05;;;;;;;18.23;9.90;;;-0.60;99.90;;;-144.05;47.44;57095.22;5048991;28;20030;-80
2023/02/09 04:34:31;;;;;;;14.68;8.38;;;-0.50;99.90;;;-144.05;47.40;57084.59;5030838;28;20533;-81
2023/02/09 04:36:57;;;;;;;19.83;10.10;;;-0.50;99.90;;;-144.05;47.59;57090.97;5045190;28;20473;-79
2023/02/09 04:39:23;;;;;;;20.80;9.40;;;-0.40;99.90;;;-144.05;47.61;57056.97;5028378;28;20101;-81
2023/02/09 04:41:49;;;;;;;17.65;9.27;;;-0.50;99.90;;;-144.05;47.37;57095.22;5040652;28;20394;-82
2023/02/09 04:44:15;;;;;;;19.85;9.57;;;-0.50;99.90;;;-144.05;47.72;57101.59;5038805;28;20037;-81
2023/02/09 04:46:40;;;;;;;24.02;10.55;;;-0.50;99.90;;;-144.05;47.31;57095.22;5041654;28;20040;-82
2023/02/09 04:49:06;;;;;;;22.77;9.95;;;-0.40;99.90;;;-144.05;47.65;57105.84;5041214;28;20053;-82
2023/02/09 04:51:32;;;;;;;20.38;9.30;;;-0.50;99.90;;;-144.05;47.75;57129.22;5041129;28;20099;-82
2023/02/09 04:53:58;;;;;;;20.23;9.90;;;-0.50;99.90;;;-144.05;47.63;57093.09;5044268;28;20029;-83
2023/02/09 04:56:24;;;;;;;17.77;8.98;;;-0.50;99.90;;;-144.05;47.53;57097.34;5045623;28;20033;-83
2023/02/09 05:01:34;;;;;;;18.48;8.30;;;-0.60;99.90;;;-144.05;47.94;57099.47;5049757;28;20041;-82
2023/02/09 05:04:01;;;;;;;22.45;10.38;;;-0.60;99.90;;;-144.05;47.82;57086.72;5049736;28;20025;-82
2023/02/09 05:06:27;;;;;;;23.83;10.27;;;-0.60;99.90;;;-144.05;47.74;57069.72;5052475;28;20037;-81
2023/02/09 05:08:52;;;;;;;20.23;10.20;;;-0.60;99.90;;;-144.05;47.61;57110.09;5054558;28;20021;-82
2023/02/09 05:11:18;;;;;;;21.38;10.85;;;-0.60;99.90;;;-144.05;47.81;57101.59;5047666;28;20040;-82
2023/02/09 05:13:45;;;;;;;23.27;10.65;;;-0.70;99.90;;;-144.05;48.00;57105.84;5032352;28;20259;-81
2023/02/09 05:16:16;;;;;;;22.48;10.05;;;-0.70;99.90;;;-144.05;48.56;57088.84;5051028;28;20026;-81
2023/02/09 05:18:43;;;;;;;22.88;10.25;;;-0.70;99.90;;;-144.05;48.39;57086.72;5050221;28;20037;-82
2023/02/09 05:21:09;;;;;;;21.30;10.15;;;-0.90;99.90;;;-144.05;48.56;57105.84;5053980;28;20020;-81
2023/02/09 05:23:35;;;;;;;19.13;9.85;;;-0.90;99.90;;;-144.05;48.49;57105.84;5032649;28;20490;-84
2023/02/09 05:26:01;;;;;;;21.40;10.95;;;-1.00;99.90;;;-144.05;48.46;57107.97;5047484;28;20276;-83
2023/02/09 05:28:27;;;;;;;21.83;10.43;;;-0.90;99.90;;;-144.05;48.20;57103.72;5024586;28;20044;-82
2023/02/09 05:30:53;;;;;;;24.05;10.73;;;-0.80;99.90;;;-144.05;47.93;57086.72;5040723;28;20030;-82
2023/02/09 05:33:24;;;;;;;22.60;10.55;;;-0.80;99.90;;;-144.05;47.97;57090.97;5039677;28;20318;-82
2023/02/09 05:35:54;;;;;;;21.25;10.20;;;-0.80;99.90;;;-144.05;48.01;57086.72;5038959;28;20029;-79
2023/02/09 05:38:27;;;;;;;22.30;9.88;;;-0.90;99.90;;;-144.05;47.89;57103.72;5021705;28;20033;-81
2023/02/09 05:40:53;;;;;;;20.13;9.52;;;-0.80;99.90;;;-144.05;47.94;57099.47;5041264;28;20159;-83
2023/02/09 05:43:19;;;;;;;23.02;10.10;;;-0.90;99.90;;;-144.05;48.27;57103.72;5041258;28;20073;-80
2023/02/09 05:45:45;;;;;;;22.90;11.45;;;-1.00;99.90;;;-144.05;48.42;57129.22;5039890;28;20033;-82
2023/02/09 05:48:11;;;;;;;22.38;10.80;;;-1.10;99.90;;;-144.05;48.75;57099.47;5038347;28;20037;-85
2023/02/09 05:50:37;;;;;;;22.30;11.07;;;-1.10;99.90;;;-144.05;48.96;57093.09;5041816;28;20040;-82
2023/02/09 05:53:03;;;;;;;21.83;11.02;;;-1.10;99.90;;;-144.05;48.76;57133.44;5038697;28;20037;-80
2023/02/09 05:55:29;;;;;;;23.85;10.52;;;-1.10;99.90;;;-144.05;48.78;57082.47;5023122;28;20033;-81
2023/02/09 05:57:55;;;;;;;26.85;11.05;;;-1.10;99.90;;;-144.05;49.11;57112.22;5043207;28;20044;-80
2023/02/09 06:00:23;;;;;;;23.20;10.85;;;-1.10;99.90;;;-144.05;49.07;57099.47;5044120;28;20049;-81
2023/02/09 06:02:49;;;;;;;22.10;10.82;;;-1.10;99.90;;;-144.05;49.06;57103.72;5028457;28;20030;-80
2023/02/09 06:05:15;;;;;;;20.70;10.30;;;-1.10;99.90;;;-144.05;49.08;57095.22;5041901;28;20039;-82
2023/02/09 06:07:41;;;;;;;22.73;11.10;;;-1.00;99.90;;;-144.05;49.02;57056.97;5042390;28;20064;-83
2023/02/09 06:10:08;;;;;;;24.38;11.30;;;-1.00;99.90;;;-144.05;48.80;57082.47;5043415;28;20039;-82
2023/02/09 06:12:34;;;;;;;24.67;11.32;;;-0.90;99.90;;;-144.05;48.48;57078.22;5028210;28;20037;-82
2023/02/09 06:15:00;;;;;;;23.65;10.38;;;-0.90;99.90;;;-144.05;48.58;57093.09;5026718;28;20053;-83
2023/02/09 06:17:25;;;;;;;21.20;9.70;;;-0.90;99.90;;;-144.05;48.72;57097.34;5041116;28;20033;-85
2023/02/09 06:19:51;;;;;;;22.85;10.63;;;-0.90;99.90;;;-144.05;48.62;57095.22;5039088;28;20056;-82
2023/02/09 06:22:17;;;;;;;25.48;11.40;;;-1.00;99.90;;;-144.05;48.78;57127.09;5042367;28;20029;-81
2023/02/09 06:24:43;;;;;;;25.35;10.32;;;-1.00;99.90;;;-144.05;48.74;57082.47;5044444;28;20086;-81
2023/02/09 06:27:12;;;;;;;23.92;10.48;;;-1.10;99.90;;;-144.05;49.02;57073.97;5041778;28;20038;-82
2023/02/09 06:29:38;;;;;;;22.13;11.63;;;-1.20;99.90;;;-144.05;49.35;57103.72;5019258;28;20037;-83
2023/02/09 06:32:04;;;;;;;27.33;11.57;;;-1.20;99.90;;;-144.05;49.11;57107.97;5035524;28;20034;-82
2023/02/09 06:34:31;;;;;;;24.13;12.25;;;-1.20;99.90;;;-144.05;48.98;57101.59;5019401;28;20405;-86
2023/02/09 06:36:57;;;;;;;22.90;10.75;;;-1.20;99.90;;;-144.05;49.30;57071.84;5019522;28;20083;-84
2023/02/09 06:39:23;;;;;;;22.20;11.15;;;-1.20;99.90;;;-144.05;49.31;57099.47;5035671;28;20022;-83
2023/02/09 06:41:49;;;;;;;24.02;10.82;;;-1.30;99.90;;;-144.05;49.45;57118.59;5018175;28;20026;-83
2023/02/09 06:44:15;;;;;;;23.10;11.50;;;-1.40;99.90;;;-144.05;49.63;57141.94;5019789;28;20033;-83
2023/02/09 06:46:41;;;;;;;26.60;12.32;;;-1.50;99.90;;;-144.05;49.94;57107.97;5034769;28;20031;-83
2023/02/09 06:49:06;;;;;;;24.13;11.10;;;-1.60;99.90;;;-144.05;50.35;57090.97;5036288;28;20083;-82
2023/02/09 06:51:32;;;;;;;26.38;12.55;;;-1.60;99.90;;;-144.05;50.08;57122.84;5034845;28;20033;-84
2023/02/09 06:53:58;;;;;;;25.92;12.07;;;-1.50;99.90;;;-144.05;49.93;57114.34;5036515;28;20029;-82
2023/02/09 06:56:24;;;;;;;21.92;11.95;;;-1.40;99.90;;;-144.05;49.57;57095.22;5038199;28;20029;-83
2023/02/09 06:58:50;;;;;;;22.10;10.88;;;-1.40;99.90;;;-144.05;49.38;57090.97;5048562;22;20033;-78
2023/02/09 07:01:16;;;;;;;21.98;10.70;;;-1.40;99.90;;;-144.05;49.54;57084.59;5055632;28;20025;-78
2023/02/09 07:03:43;;;;;;;23.45;10.32;;;-1.30;99.90;;;-144.05;49.39;57084.59;5036748;28;20021;-78
2023/02/09 07:06:20;;;;;;;21.50;11.48;;;-1.30;99.90;;;-144.05;49.21;57065.47;5055158;28;20029;-78
2023/02/09 07:08:48;;;;;;;22.95;11.93;;;-1.10;99.90;;;-144.05;49.00;57076.09;5036648;28;20145;-80
2023/02/09 07:11:17;;;;;;;22.42;11.45;;;-1.10;99.90;;;-144.05;48.69;57088.84;5056946;28;20035;-77
2023/02/09 07:13:45;;;;;;;27.98;12.57;;;-1.00;99.90;;;-144.05;48.39;57059.09;5048230;28;20096;-78
2023/02/09 07:16:11;;;;;;;30.20;12.40;;;-0.90;99.90;;;-144.05;48.53;57112.22;5069048;28;20021;-76
2023/02/09 07:18:38;;;;;;;22.75;11.35;;;-0.90;99.90;;;-144.05;48.71;57112.22;5070321;28;20033;-77
2023/02/09 07:21:14;;;;;;;24.92;11.27;;;-0.80;99.90;;;-144.05;48.44;57107.97;5052588;28;20061;-78
2023/02/09 07:23:40;;;;;;;21.63;11.75;;;-0.80;99.90;;;-144.05;48.08;57090.97;5067881;28;20044;-77
2023/02/09 07:26:14;;;;;;;23.00;11.43;;;-0.70;99.90;;;-144.05;47.76;57086.72;5049857;28;20028;-78
2023/02/09 07:28:41;;;;;;;26.33;12.95;;;-0.60;99.90;;;-144.05;47.66;57059.09;5068233;28;20055;-78
2023/02/09 07:31:12;;;;;;;30.45;12.73;;;-0.50;99.90;;;-144.05;47.23;57088.84;5051029;28;20039;-76
2023/02/09 07:33:38;;;;;;;23.85;12.05;;;-0.30;99.90;;;-144.05;47.04;57076.09;5049827;28;20040;-79
2023/02/09 07:36:11;;;;;;;25.33;12.27;;;-0.20;99.90;;;-144.05;46.67;57073.97;5050590;28;20060;-78
2023/02/09 07:38:38;;;;;;;24.02;11.45;;;-0.10;99.90;;;-144.05;46.56;57069.72;5048800;28;20033;-77
2023/02/09 07:41:07;;;;;;;22.25;12.38;;;0.00;99.90;;;-144.05;46.29;57073.97;5042589;28;20032;-76
2023/02/09 07:43:34;;;;;;;26.75;12.52;;;0.10;99.90;;;-144.05;46.35;57069.72;5058297;28;20032;-79
2023/02/09 07:46:07;;;;;;;24.85;11.20;;;0.30;99.90;;;-144.05;46.22;57069.72;5057955;28;20180;-78
2023/02/09 07:48:35;;;;;;;28.55;13.80;;;0.40;99.90;;;-144.05;46.05;57052.75;5056967;28;20043;-77
2023/02/09 07:51:02;;;;;;;24.50;12.25;;;0.60;99.90;;;-144.05;45.76;57069.72;5037014;28;20033;-78
2023/02/09 07:53:28;;;;;;;27.10;12.13;;;0.70;99.90;;;-144.05;45.42;57095.22;5055474;28;20093;-78
2023/02/09 07:55:54;;;;;;;30.98;11.95;;;0.80;99.90;;;-144.05;44.83;57035.75;5062526;28;20024;-78
2023/02/09 07:58:21;;;;;;;21.02;10.43;;;0.90;99.90;;;-144.05;45.17;57044.25;5038891;28;20120;-77
2023/02/09 08:00:50;;;;;;;21.50;11.18;;;1.00;99.90;;;-144.05;44.00;57050.63;5055509;28;20029;-79
2023/02/09 08:03:21;;;;;;;23.58;11.50;;;1.10;99.90;;;-144.05;43.70;57044.25;5056314;28;20208;-79
2023/02/09 08:06:09;;;;;;;23.83;11.13;;;1.20;99.90;;;-144.05;43.53;57050.63;5060196;28;20029;-78
2023/02/09 08:08:35;;;;;;;23.70;11.75;;;1.30;99.90;;;-144.05;43.68;57020.88;5039983;28;20025;-77
2023/02/09 08:11:03;;;;;;;25.17;11.60;;;1.40;99.90;;;-144.05;43.91;57050.63;5039710;28;20182;-79
2023/02/09 08:13:36;;;;;;;23.85;10.52;;;1.40;99.90;;;-144.05;43.91;57061.22;5056129;28;20040;-77
2023/02/09 08:16:10;;;;;;;28.27;11.77;;;1.50;99.90;;;-144.05;43.88;57052.75;5055435;28;20036;-76
2023/02/09 08:19:02;;;;;;;24.88;12.32;;;1.60;99.90;;;-144.05;43.25;57063.34;5037698;28;20062;-80
2023/02/09 08:21:35;;;;;;;25.92;13.27;;;1.80;99.90;;;-144.05;43.38;57033.63;5055799;28;20025;-77
2023/02/09 08:24:05;;;;;;;22.75;12.00;;;1.80;99.90;;;-144.05;43.24;57040.00;5037818;28;20036;-78
2023/02/09 08:26:31;;;;;;;23.00;11.93;;;1.90;99.90;;;-144.05;42.99;57052.75;5057327;28;20025;-79
2023/02/09 08:28:58;;;;;;;21.65;10.50;;;1.90;99.90;;;-144.05;42.70;57035.75;5059439;28;20108;-78
2023/02/09 08:31:24;;;;;;;22.60;11.35;;;1.90;99.90;;;-144.05;42.25;57054.88;5063220;28;20100;-80
2023/02/09 08:33:50;;;;;;;22.77;13.20;;;1.90;99.90;;;-144.05;42.02;57031.50;5062735;28;20068;-77
2023/02/09 08:36:21;;;;;;;22.35;11.65;;;1.90;99.90;;;-144.05;42.02;57046.38;5061889;28;20037;-77
2023/02/09 08:38:47;;;;;;;23.33;11.60;;;1.80;99.90;;;-144.05;42.58;57040.00;5061689;28;20037;-80
2023/02/09 08:41:15;;;;;;;21.67;11.95;;;1.80;99.90;;;-144.05;42.43;57054.88;5061364;28;20059;-77
2023/02/09 08:43:50;;;;;;;27.35;12.95;;;1.90;99.90;;;-144.05;42.48;57035.75;5060887;28;20047;-80
2023/02/09 08:46:17;;;;;;;21.85;10.95;;;2.00;99.90;;;-144.05;42.30;57031.50;5061080;28;20496;-77
2023/02/09 08:48:46;;;;;;;21.90;11.93;;;2.20;99.90;;;-144.05;41.55;57052.75;5060324;28;20116;-75
2023/02/09 08:51:15;;;;;;;21.65;11.95;;;2.40;99.90;;;-144.05;41.75;57061.22;5061118;28;20112;-78
2023/02/09 08:53:42;;;;;;;24.60;11.93;;;2.60;99.90;;;-144.05;41.43;57046.38;5060652;28;20033;-78
2023/02/09 08:56:09;;;;;;;21.52;11.50;;;2.70;99.90;;;-144.05;40.29;57027.25;5043116;28;20036;-80
2023/02/09 08:58:35;;;;;;;20.25;10.95;;;2.70;99.90;;;-144.05;41.01;57035.75;5060362;28;20029;-78
2023/02/09 09:01:01;;;;;;;23.67;11.73;;;2.80;99.90;;;-144.05;40.20;57016.63;5059539;28;20039;-77
2023/02/09 09:03:30;;;;;;;20.35;10.57;;;3.00;99.90;;;-144.05;39.60;57006.00;5058149;28;20024;-79
2023/02/09 09:06:04;;;;;;;20.58;11.15;;;3.00;99.90;;;-144.05;39.81;57025.13;5058890;28;20025;-76
2023/02/09 09:08:34;;;;;;;22.02;11.10;;;3.00;99.90;;;-144.05;40.00;57001.75;5059390;28;20377;-77
2023/02/09 09:11:01;;;;;;;23.30;10.48;;;3.10;99.90;;;-144.05;39.92;57025.13;5056646;28;20040;-78
2023/02/09 09:13:28;;;;;;;22.25;11.70;;;3.20;99.90;;;-144.05;39.86;57029.38;5058590;28;20029;-79
2023/02/09 09:15:55;;;;;;;20.55;11.10;;;3.10;99.90;;;-144.05;39.84;57006.00;5041378;28;20037;-80
2023/02/09 09:18:23;;;;;;;23.38;10.75;;;3.20;99.90;;;-144.05;39.70;57014.50;5057315;28;20098;-78
2023/02/09 09:20:50;;;;;;;26.73;12.23;;;3.20;99.90;;;-144.05;39.71;57031.50;5058286;28;20029;-80
2023/02/09 09:23:16;;;;;;;21.75;10.60;;;3.10;99.90;;;-144.05;39.79;57027.25;5060686;28;20029;-79
2023/02/09 09:25:42;;;;;;;22.10;11.88;;;3.20;99.90;;;-144.05;39.35;57046.38;5060172;28;20294;-79
2023/02/09 09:28:09;;;;;;;27.27;12.25;;;3.30;99.90;;;-144.05;39.53;57027.25;5060413;28;20025;-79
2023/02/09 09:30:36;;;;;;;19.67;11.10;;;3.30;99.90;;;-144.05;39.27;57014.50;5060721;28;20086;-78
2023/02/09 09:33:03;;;;;;;19.48;9.98;;;3.30;99.90;;;-144.05;39.65;57033.63;5059294;28;20674;-80
2023/02/09 09:35:29;;;;;;;19.17;10.43;;;3.40;99.90;;;-144.05;38.62;57027.25;5041953;28;20065;-79
2023/02/09 09:37:57;;;;;;;22.48;10.88;;;3.70;99.90;;;-144.05;38.65;57006.00;5058219;28;20033;-77
2023/02/09 09:40:34;;;;;;;23.75;11.77;;;3.80;99.90;;;-144.05;38.53;57023.00;5057736;28;20102;-77
2023/02/09 09:43:19;;;;;;;21.60;11.30;;;3.90;99.90;;;-144.05;38.34;57006.00;5060644;28;20025;-78
2023/02/09 09:45:46;;;;;;;21.17;11.32;;;3.90;99.90;;;-144.05;38.44;57042.13;5059038;28;20032;-77
2023/02/09 09:48:29;;;;;;;22.60;11.48;;;3.80;99.90;;;-144.05;38.57;57025.13;5057883;28;20101;-79
2023/02/09 09:51:07;;;;;;;22.13;10.82;;;3.80;99.90;;;-144.05;38.51;57001.75;5060031;28;20083;-77
2023/02/09 09:53:36;;;;;;;23.65;11.68;;;3.80;99.90;;;-144.05;38.24;57046.38;5058688;28;20024;-76
2023/02/09 09:56:08;;;;;;;20.10;11.25;;;3.80;99.90;;;-144.05;38.13;57006.00;5057500;28;20036;-78
2023/02/09 09:58:41;;;;;;;21.05;10.30;;;4.10;99.90;;;-144.05;37.75;57006.00;5038779;28;20028;-77
2023/02/09 10:01:17;;;;;;;23.83;11.57;;;4.30;99.90;;;-144.05;37.46;57001.75;5058280;28;20051;-78
2023/02/09 10:03:43;;;;;;;18.63;10.50;;;4.60;99.90;;;-144.05;37.33;57006.00;5039727;28;20075;-78
2023/02/09 10:06:20;;;;;;;20.30;11.38;;;4.60;99.20;;;-144.05;36.78;57001.75;5057228;28;20029;-79
2023/02/09 10:09:21;;;;;;;19.33;10.38;;;4.80;98.70;;;-144.05;37.25;56999.63;5056612;28;20373;-79
2023/02/09 10:12:14;;;;;;;20.05;10.25;;;4.90;98.90;;;-144.05;36.38;57003.88;5058728;28;20033;-79
2023/02/09 10:14:41;;;;;;;18.67;10.77;;;4.80;96.60;;;-144.05;37.03;57031.50;5059993;28;20040;-79
2023/02/09 10:17:07;;;;;;;24.00;11.30;;;4.60;96.80;;;-144.05;37.17;57014.50;5058107;28;20071;-77
2023/02/09 10:19:33;;;;;;;20.50;10.00;;;4.40;96.90;;;-144.05;37.02;57025.13;5056808;28;20021;-79